createdAt,value
2024-03-13T05:18:08.543Z,6.80
2024-03-13T05:21:14.108Z,6.72
2024-03-13T05:24:17.072Z,6.78
2024-03-13T05:27:20.231Z,6.86
2024-03-13T05:30:23.098Z,6.77
2024-03-13T05:33:26.127Z,6.83
2024-03-13T05:36:29.642Z,6.88
2024-03-13T05:39:33.382Z,6.82
2024-03-13T05:42:36.296Z,6.80
2024-03-13T05:45:39.825Z,6.91
2024-03-13T05:48:42.807Z,7.09
2024-03-13T05:51:46.621Z,7.07
2024-03-13T05:54:50.131Z,7.21
2024-03-13T05:57:53.225Z,7.22
2024-03-13T06:00:56.336Z,7.27
2024-03-13T06:04:00.182Z,7.31
2024-03-13T06:07:03.314Z,7.37
2024-03-13T06:10:07.553Z,7.28
2024-03-13T06:13:11.163Z,7.24
2024-03-13T06:16:17.680Z,7.48
2024-03-13T06:19:20.896Z,7.71
2024-03-13T06:22:23.913Z,7.99
2024-03-13T06:25:29.355Z,8.21
2024-03-13T06:28:51.093Z,8.35
2024-03-13T06:31:54.034Z,9.09
2024-03-13T06:34:57.774Z,9.73
2024-03-13T06:38:00.416Z,9.63
2024-03-13T06:41:03.615Z,10.53
2024-03-13T06:44:06.753Z,10.24
2024-03-13T06:47:09.772Z,10.29
2024-03-13T06:50:13.379Z,11.02
2024-03-13T06:53:16.630Z,11.22
2024-03-13T06:56:19.498Z,11.75
2024-03-13T06:59:22.619Z,11.65
2024-03-13T07:02:25.593Z,10.83
2024-03-13T07:05:29.199Z,11.19
2024-03-13T07:08:32.711Z,11.39
2024-03-13T07:11:35.705Z,11.47
2024-03-13T07:14:38.470Z,12.02
2024-03-13T07:17:41.718Z,11.44
2024-03-13T07:20:44.579Z,11.97
2024-03-13T07:23:48.876Z,12.12
2024-03-13T07:26:54.667Z,12.76
2024-03-13T07:29:57.914Z,12.15
2024-03-13T07:33:00.995Z,13.19
2024-03-13T07:36:04.612Z,11.74
2024-03-13T07:39:12.642Z,11.04
2024-03-13T07:42:16.556Z,10.78
2024-03-13T07:45:19.237Z,10.74
2024-03-13T07:48:22.219Z,11.27
2024-03-13T07:51:24.988Z,11.18
2024-03-13T07:54:29.518Z,12.17
2024-03-13T07:57:32.532Z,11.89
2024-03-13T08:00:36.928Z,12.78
2024-03-13T08:03:40.482Z,12.77
2024-03-13T16:50:50.317Z,10.90
2024-03-13T16:53:54.824Z,10.81
2024-03-13T16:56:57.939Z,10.76
2024-03-13T17:00:02.007Z,10.54
2024-03-13T17:03:05.615Z,10.53
2024-03-13T17:06:10.603Z,10.46
2024-03-13T17:09:15.671Z,10.24
2024-03-13T17:12:18.797Z,10.19
2024-03-13T17:15:22.906Z,10.26
2024-03-13T17:18:27.592Z,10.17
2024-03-13T17:21:30.439Z,10.03
2024-03-13T17:24:33.586Z,9.92
2024-03-13T17:27:36.535Z,9.93
2024-03-13T17:30:39.865Z,9.85
2024-03-13T17:33:42.835Z,9.79
2024-03-13T17:36:47.102Z,9.61
2024-03-13T17:39:49.888Z,9.59
2024-03-13T17:42:55.926Z,9.56
2024-03-13T17:45:58.681Z,9.46
2024-03-13T17:49:02.120Z,9.51
2024-03-13T17:52:05.078Z,9.53
2024-03-13T17:55:08.798Z,9.43
2024-03-13T17:58:11.627Z,9.29
2024-03-13T18:01:14.974Z,9.31
2024-03-13T18:04:18.316Z,9.38
2024-03-13T18:07:21.031Z,9.14
2024-03-13T18:10:25.420Z,9.24
2024-03-13T18:13:37.223Z,9.13
2024-03-13T18:16:43.613Z,9.16
2024-03-13T18:19:46.374Z,8.91
2024-03-13T18:22:50.953Z,8.96
2024-03-13T18:25:55.952Z,8.96
2024-03-13T18:29:00.173Z,8.86
2024-03-13T18:32:04.890Z,8.72
2024-03-13T18:35:12.020Z,8.87
2024-03-13T18:38:17.759Z,8.78
2024-03-13T18:41:21.661Z,8.60
2024-03-13T18:44:27.220Z,8.56
2024-03-13T18:47:30.460Z,8.45
2024-03-13T18:50:33.623Z,8.47
2024-03-13T18:53:37.502Z,8.53
2024-03-13T18:56:40.282Z,8.36
2024-03-13T18:59:46.069Z,8.36
2024-03-13T19:02:49.612Z,8.40
2024-03-13T19:05:53.720Z,8.29
2024-03-13T19:08:56.636Z,8.41
2024-03-13T19:12:01.545Z,8.40
2024-03-13T19:15:09.123Z,8.17
2024-03-13T19:18:14.135Z,8.12
2024-03-13T19:21:17.288Z,7.88
2024-03-13T19:24:21.598Z,7.84
2024-03-13T19:27:24.790Z,7.78
2024-03-13T19:30:29.742Z,7.63
2024-03-13T19:33:33.374Z,7.54
2024-03-13T19:36:36.618Z,7.41
2024-03-13T19:39:40.816Z,7.44
2024-03-13T19:42:43.977Z,7.38
2024-03-13T19:45:47.322Z,7.48
2024-03-13T19:48:52.915Z,7.48
2024-03-13T19:51:56.029Z,7.43
2024-03-13T19:55:00.320Z,7.39
2024-03-13T19:58:03.532Z,7.41
2024-03-13T20:01:10.440Z,7.36
2024-03-13T20:04:14.723Z,7.24
2024-03-13T20:07:17.889Z,7.46
2024-03-13T20:10:26.391Z,7.40
2024-03-13T20:13:29.528Z,7.48
2024-03-13T20:16:36.804Z,7.18
2024-03-13T20:19:39.830Z,7.22
2024-03-13T20:22:44.765Z,7.42
2024-03-13T20:25:47.816Z,7.42
2024-03-13T20:28:50.815Z,7.34
2024-03-13T20:31:53.923Z,7.23
2024-03-13T20:34:57.039Z,7.11
2024-03-13T20:38:00.093Z,7.05
2024-03-13T20:41:04.406Z,7.05
2024-03-13T20:44:07.365Z,7.21
2024-03-13T20:47:12.758Z,7.29
2024-03-13T20:50:15.920Z,7.18
2024-03-13T20:53:19.431Z,7.04
2024-03-13T20:56:22.953Z,6.95
2024-03-13T20:59:26.408Z,6.97
2024-03-13T21:02:29.146Z,7.15
2024-03-13T21:05:32.852Z,7.06
2024-03-13T21:08:36.885Z,6.75
2024-03-13T21:11:40.284Z,6.73
2024-03-13T21:14:43.525Z,6.71
2024-03-13T21:17:47.085Z,6.40
2024-03-13T21:20:49.909Z,6.28
2024-03-13T21:23:54.200Z,6.22
2024-03-13T21:26:59.556Z,6.27
2024-03-13T21:30:05.191Z,6.27
2024-03-13T21:33:08.730Z,6.25
2024-03-13T21:36:11.912Z,6.15
2024-03-13T21:39:15.768Z,6.32
2024-03-13T21:42:19.279Z,6.28
2024-03-13T21:45:23.056Z,6.04
2024-03-13T21:48:36.238Z,6.02
2024-03-13T21:51:58.631Z,6.02
2024-03-13T21:55:16.586Z,5.80
2024-03-13T21:58:20.609Z,5.73
2024-03-13T22:01:23.868Z,5.64
2024-03-13T22:04:27.214Z,5.67
2024-03-13T22:07:30.211Z,5.51
2024-03-13T22:10:33.167Z,5.52
2024-03-13T22:13:36.138Z,5.52
2024-03-13T22:16:39.046Z,5.45
2024-03-13T22:19:43.652Z,5.39
2024-03-13T22:22:48.348Z,5.58
2024-03-13T22:25:51.486Z,5.58
2024-03-13T22:28:55.133Z,5.64
2024-03-13T22:31:58.253Z,5.57
2024-03-13T22:35:01.534Z,5.51
2024-03-13T22:38:04.490Z,5.38
2024-03-13T22:41:07.540Z,5.43
2024-03-13T22:44:10.431Z,5.42
2024-03-13T22:47:13.381Z,5.06
2024-03-13T22:50:17.091Z,4.96
2024-03-13T22:53:22.455Z,5.01
2024-03-13T22:56:26.383Z,4.86
2024-03-13T22:59:30.219Z,4.88
2024-03-13T23:02:36.663Z,4.89
2024-03-13T23:05:42.541Z,4.90
2024-03-13T23:08:45.640Z,4.97
2024-03-13T23:11:49.080Z,5.05
2024-03-13T23:14:54.181Z,5.07
2024-03-13T23:17:58.872Z,4.92
2024-03-13T23:21:02.077Z,4.78
2024-03-13T23:24:05.743Z,4.77
2024-03-13T23:27:08.818Z,4.73
2024-03-13T23:30:12.480Z,4.53
2024-03-13T23:33:15.951Z,4.44
2024-03-13T23:36:19.345Z,4.29
2024-03-13T23:39:22.427Z,4.25
2024-03-13T23:42:25.814Z,4.07
2024-03-13T23:45:30.165Z,4.02
2024-03-13T23:48:33.506Z,4.22
2024-03-13T23:51:39.923Z,4.17
2024-03-13T23:54:43.175Z,4.11
2024-03-13T23:57:46.100Z,4.05
